sensor_id;sensor_type;location;lat;lon;timestamp;pressure;altitude;pressure_sealevel;temperature;humidity
5380;BME280;2713;42.680;23.310;2023-07-13T00:00:08;95295.56;;;26.95;50.52
5380;BME280;2713;42.680;23.310;2023-07-13T00:02:40;95295.28;;;26.96;51.32
5380;BME280;2713;42.680;23.310;2023-07-13T00:05:07;95289.63;;;27.03;51.04
5380;BME280;2713;42.680;23.310;2023-07-13T00:07:34;95293.09;;;27.03;51.48
5380;BME280;2713;42.680;23.310;2023-07-13T00:10:01;95289.63;;;27.08;51.37
5380;BME280;2713;42.680;23.310;2023-07-13T00:12:30;95303.81;;;26.98;51.50
5380;BME280;2713;42.680;23.310;2023-07-13T00:15:00;95294.72;;;27.04;51.29
5380;BME280;2713;42.680;23.310;2023-07-13T00:17:28;95293.91;;;27.04;51.76
5380;BME280;2713;42.680;23.310;2023-07-13T00:19:55;95291.03;;;26.95;51.76
5380;BME280;2713;42.680;23.310;2023-07-13T00:22:23;95288.16;;;26.71;52.66
5380;BME280;2713;42.680;23.310;2023-07-13T00:24:51;95295.94;;;26.68;53.25
5380;BME280;2713;42.680;23.310;2023-07-13T00:27:19;95284.94;;;26.80;52.66
5380;BME280;2713;42.680;23.310;2023-07-13T00:29:46;95282.00;;;26.81;52.76
5380;BME280;2713;42.680;23.310;2023-07-13T00:32:14;95282.81;;;26.82;52.78
5380;BME280;2713;42.680;23.310;2023-07-13T00:34:40;95282.56;;;26.78;53.47
5380;BME280;2713;42.680;23.310;2023-07-13T00:37:07;95284.69;;;26.81;54.10
5380;BME280;2713;42.680;23.310;2023-07-13T00:39:35;95279.88;;;26.83;53.87
5380;BME280;2713;42.680;23.310;2023-07-13T00:42:03;95283.13;;;26.65;54.50
5380;BME280;2713;42.680;23.310;2023-07-13T00:44:31;95287.34;;;26.76;54.19
5380;BME280;2713;42.680;23.310;2023-07-13T00:46:58;95275.34;;;26.79;54.37
5380;BME280;2713;42.680;23.310;2023-07-13T00:49:28;95283.06;;;26.80;54.07
5380;BME280;2713;42.680;23.310;2023-07-13T00:51:59;95283.34;;;26.79;54.15
5380;BME280;2713;42.680;23.310;2023-07-13T00:54:30;95279.09;;;26.78;54.00
5380;BME280;2713;42.680;23.310;2023-07-13T00:57:01;95281.28;;;26.65;54.50
5380;BME280;2713;42.680;23.310;2023-07-13T00:59:31;95261.13;;;26.39;54.77
5380;BME280;2713;42.680;23.310;2023-07-13T01:01:58;95281.06;;;26.57;54.96
5380;BME280;2713;42.680;23.310;2023-07-13T01:04:26;95278.59;;;26.65;55.02
5380;BME280;2713;42.680;23.310;2023-07-13T01:06:54;95268.50;;;26.62;55.16
5380;BME280;2713;42.680;23.310;2023-07-13T01:09:22;95274.94;;;26.56;55.55
5380;BME280;2713;42.680;23.310;2023-07-13T01:11:49;95274.88;;;26.61;55.13
5380;BME280;2713;42.680;23.310;2023-07-13T01:14:16;95283.19;;;26.60;54.95
5380;BME280;2713;42.680;23.310;2023-07-13T01:16:45;95274.41;;;26.49;54.91
5380;BME280;2713;42.680;23.310;2023-07-13T01:19:21;95277.66;;;26.41;55.55
5380;BME280;2713;42.680;23.310;2023-07-13T01:21:53;95269.69;;;26.31;55.22
5380;BME280;2713;42.680;23.310;2023-07-13T01:24:19;95267.06;;;26.21;55.83
5380;BME280;2713;42.680;23.310;2023-07-13T01:26:47;95264.41;;;26.21;55.63
5380;BME280;2713;42.680;23.310;2023-07-13T01:29:14;95266.50;;;26.24;55.27
5380;BME280;2713;42.680;23.310;2023-07-13T01:34:23;95264.94;;;26.23;55.50
5380;BME280;2713;42.680;23.310;2023-07-13T01:36:49;95267.88;;;26.21;56.04
5380;BME280;2713;42.680;23.310;2023-07-13T01:39:20;95270.28;;;26.18;55.86
5380;BME280;2713;42.680;23.310;2023-07-13T01:41:48;95267.06;;;26.26;55.98
5380;BME280;2713;42.680;23.310;2023-07-13T01:44:15;95263.34;;;26.17;56.03
5380;BME280;2713;42.680;23.310;2023-07-13T01:46:42;95262.56;;;25.96;56.90
5380;BME280;2713;42.680;23.310;2023-07-13T01:49:10;95260.69;;;26.02;56.82
5380;BME280;2713;42.680;23.310;2023-07-13T01:51:37;95267.88;;;26.11;57.22
5380;BME280;2713;42.680;23.310;2023-07-13T01:54:03;95266.28;;;26.05;57.01
5380;BME280;2713;42.680;23.310;2023-07-13T01:56:32;95266.00;;;26.07;57.10
5380;BME280;2713;42.680;23.310;2023-07-13T01:58:58;95260.13;;;26.10;57.36
5380;BME280;2713;42.680;23.310;2023-07-13T02:01:26;95263.09;;;25.93;57.63
5380;BME280;2713;42.680;23.310;2023-07-13T02:03:53;95264.44;;;25.96;57.73
5380;BME280;2713;42.680;23.310;2023-07-13T02:06:20;95274.56;;;25.94;58.19
5380;BME280;2713;42.680;23.310;2023-07-13T02:08:47;95272.97;;;25.88;58.13
5380;BME280;2713;42.680;23.310;2023-07-13T02:11:14;95274.84;;;25.92;58.09
5380;BME280;2713;42.680;23.310;2023-07-13T02:13:42;95276.44;;;25.93;58.73
5380;BME280;2713;42.680;23.310;2023-07-13T02:16:09;95278.31;;;25.88;58.77
5380;BME280;2713;42.680;23.310;2023-07-13T02:18:36;95277.78;;;25.96;58.43
5380;BME280;2713;42.680;23.310;2023-07-13T02:21:03;95277.78;;;25.81;58.89
5380;BME280;2713;42.680;23.310;2023-07-13T02:23:29;95286.84;;;25.85;59.08
5380;BME280;2713;42.680;23.310;2023-07-13T02:25:56;95282.00;;;25.97;58.66
5380;BME280;2713;42.680;23.310;2023-07-13T02:28:23;95283.94;;;25.56;60.80
5380;BME280;2713;42.680;23.310;2023-07-13T02:30:52;95289.53;;;25.64;61.01
5380;BME280;2713;42.680;23.310;2023-07-13T02:33:18;95285.78;;;25.65;60.44
5380;BME280;2713;42.680;23.310;2023-07-13T02:35:47;95285.00;;;25.60;60.28
5380;BME280;2713;42.680;23.310;2023-07-13T02:38:14;95288.19;;;25.67;60.58
5380;BME280;2713;42.680;23.310;2023-07-13T02:40:41;95283.38;;;25.79;60.13
5380;BME280;2713;42.680;23.310;2023-07-13T02:43:07;95287.13;;;25.78;60.00
5380;BME280;2713;42.680;23.310;2023-07-13T02:45:34;95291.91;;;25.71;60.01
5380;BME280;2713;42.680;23.310;2023-07-13T02:48:03;95289.25;;;25.66;60.55
5380;BME280;2713;42.680;23.310;2023-07-13T02:50:30;95286.06;;;25.54;60.67
5380;BME280;2713;42.680;23.310;2023-07-13T02:52:56;95285.00;;;25.55;60.57
5380;BME280;2713;42.680;23.310;2023-07-13T02:55:23;95287.38;;;25.36;61.31
5380;BME280;2713;42.680;23.310;2023-07-13T02:57:50;95285.50;;;25.47;61.01
5380;BME280;2713;42.680;23.310;2023-07-13T03:00:18;95296.44;;;25.55;61.07
5380;BME280;2713;42.680;23.310;2023-07-13T03:02:45;95298.28;;;25.55;61.04
5380;BME280;2713;42.680;23.310;2023-07-13T03:05:13;95294.28;;;25.42;61.80
5380;BME280;2713;42.680;23.310;2023-07-13T03:07:42;95301.50;;;25.57;61.54
5380;BME280;2713;42.680;23.310;2023-07-13T03:10:10;95298.59;;;25.53;61.57
5380;BME280;2713;42.680;23.310;2023-07-13T03:12:43;95304.44;;;25.55;61.65
5380;BME280;2713;42.680;23.310;2023-07-13T03:15:19;95302.56;;;25.56;61.75
5380;BME280;2713;42.680;23.310;2023-07-13T03:17:47;95304.97;;;25.57;61.29
5380;BME280;2713;42.680;23.310;2023-07-13T03:20:16;95304.94;;;25.42;61.95
5380;BME280;2713;42.680;23.310;2023-07-13T03:22:43;95306.53;;;25.33;62.53
5380;BME280;2713;42.680;23.310;2023-07-13T03:25:10;95300.94;;;25.30;62.99
5380;BME280;2713;42.680;23.310;2023-07-13T03:27:37;95294.81;;;25.39;62.30
5380;BME280;2713;42.680;23.310;2023-07-13T03:30:07;95305.97;;;25.21;63.39
5380;BME280;2713;42.680;23.310;2023-07-13T03:32:35;95313.19;;;25.20;63.05
5380;BME280;2713;42.680;23.310;2023-07-13T03:35:02;95312.91;;;25.32;63.06
5380;BME280;2713;42.680;23.310;2023-07-13T03:37:32;95308.38;;;25.28;62.97
5380;BME280;2713;42.680;23.310;2023-07-13T03:39:59;95316.41;;;25.38;62.68
5380;BME280;2713;42.680;23.310;2023-07-13T03:42:26;95318.50;;;25.36;63.05
5380;BME280;2713;42.680;23.310;2023-07-13T03:44:54;95304.66;;;25.49;62.87
5380;BME280;2713;42.680;23.310;2023-07-13T03:47:22;95309.97;;;25.18;62.81
5380;BME280;2713;42.680;23.310;2023-07-13T03:49:48;95309.44;;;25.11;63.67
5380;BME280;2713;42.680;23.310;2023-07-13T03:52:15;95316.59;;;25.11;63.52
5380;BME280;2713;42.680;23.310;2023-07-13T03:54:43;95306.22;;;25.14;62.91
5380;BME280;2713;42.680;23.310;2023-07-13T03:57:10;95311.59;;;25.30;63.08
5380;BME280;2713;42.680;23.310;2023-07-13T03:59:37;95309.47;;;25.27;63.18
5380;BME280;2713;42.680;23.310;2023-07-13T04:02:04;95307.59;;;25.37;63.37
5380;BME280;2713;42.680;23.310;2023-07-13T04:04:33;95310.81;;;25.44;62.96
5380;BME280;2713;42.680;23.310;2023-07-13T04:07:00;95310.84;;;25.54;62.72
5380;BME280;2713;42.680;23.310;2023-07-13T04:09:27;95308.66;;;25.36;62.95
5380;BME280;2713;42.680;23.310;2023-07-13T04:11:55;95302.81;;;25.44;62.49
5380;BME280;2713;42.680;23.310;2023-07-13T04:14:22;95304.97;;;25.52;62.64
5380;BME280;2713;42.680;23.310;2023-07-13T04:16:48;95303.63;;;25.55;62.40
5380;BME280;2713;42.680;23.310;2023-07-13T04:19:15;95306.56;;;25.53;62.41
5380;BME280;2713;42.680;23.310;2023-07-13T04:21:42;95307.06;;;25.40;62.79
5380;BME280;2713;42.680;23.310;2023-07-13T04:24:09;95316.13;;;25.44;62.55
5380;BME280;2713;42.680;23.310;2023-07-13T04:26:35;95316.16;;;25.64;61.87
5380;BME280;2713;42.680;23.310;2023-07-13T04:29:05;95324.13;;;25.69;62.22
5380;BME280;2713;42.680;23.310;2023-07-13T04:31:32;95328.41;;;25.70;62.32
5380;BME280;2713;42.680;23.310;2023-07-13T04:33:59;95328.41;;;25.60;62.49
5380;BME280;2713;42.680;23.310;2023-07-13T04:36:26;95328.88;;;25.22;62.99
5380;BME280;2713;42.680;23.310;2023-07-13T04:38:53;95328.63;;;25.23;63.21
5380;BME280;2713;42.680;23.310;2023-07-13T04:41:20;95330.47;;;25.48;62.80
5380;BME280;2713;42.680;23.310;2023-07-13T04:43:48;95325.47;;;25.72;61.15
5380;BME280;2713;42.680;23.310;2023-07-13T04:46:17;95325.97;;;26.04;60.13
5380;BME280;2713;42.680;23.310;2023-07-13T04:48:44;95324.88;;;26.36;58.87
5380;BME280;2713;42.680;23.310;2023-07-13T04:51:11;95328.44;;;26.75;58.51
5380;BME280;2713;42.680;23.310;2023-07-13T04:53:38;95340.34;;;27.03;56.80
5380;BME280;2713;42.680;23.310;2023-07-13T04:56:05;95344.41;;;27.39;55.74
5380;BME280;2713;42.680;23.310;2023-07-13T04:58:33;95341.47;;;27.75;54.74
5380;BME280;2713;42.680;23.310;2023-07-13T05:01:00;95343.25;;;27.89;54.78
5380;BME280;2713;42.680;23.310;2023-07-13T05:03:29;95337.81;;;27.99;54.57
5380;BME280;2713;42.680;23.310;2023-07-13T05:05:57;95340.97;;;28.35;53.50
5380;BME280;2713;42.680;23.310;2023-07-13T05:08:25;95337.19;;;28.60;53.02
5380;BME280;2713;42.680;23.310;2023-07-13T05:10:52;95338.22;;;28.69;52.28
5380;BME280;2713;42.680;23.310;2023-07-13T05:13:19;95342.31;;;28.56;52.11
5380;BME280;2713;42.680;23.310;2023-07-13T05:15:47;95351.22;;;28.52;52.12
5380;BME280;2713;42.680;23.310;2023-07-13T05:18:14;95351.00;;;28.72;51.79
5380;BME280;2713;42.680;23.310;2023-07-13T05:20:42;95348.75;;;29.03;51.46
5380;BME280;2713;42.680;23.310;2023-07-13T05:23:09;95345.53;;;29.25;50.87
5380;BME280;2713;42.680;23.310;2023-07-13T05:25:36;95342.63;;;29.40;50.02
5380;BME280;2713;42.680;23.310;2023-07-13T05:28:03;95353.06;;;29.41;49.57
5380;BME280;2713;42.680;23.310;2023-07-13T05:30:29;95351.25;;;29.37;49.96
5380;BME280;2713;42.680;23.310;2023-07-13T05:32:56;95348.66;;;29.08;50.58
5380;BME280;2713;42.680;23.310;2023-07-13T05:35:23;95357.56;;;29.27;49.98
5380;BME280;2713;42.680;23.310;2023-07-13T05:37:51;95352.34;;;29.36;49.91
5380;BME280;2713;42.680;23.310;2023-07-13T05:40:18;95352.75;;;29.61;48.85
5380;BME280;2713;42.680;23.310;2023-07-13T05:42:45;95353.34;;;29.58;48.89
5380;BME280;2713;42.680;23.310;2023-07-13T05:45:11;95359.25;;;29.74;48.91
5380;BME280;2713;42.680;23.310;2023-07-13T05:47:38;95357.88;;;29.95;47.89
5380;BME280;2713;42.680;23.310;2023-07-13T05:50:06;95356.84;;;30.10;47.16
5380;BME280;2713;42.680;23.310;2023-07-13T05:52:33;95358.09;;;29.99;47.84
5380;BME280;2713;42.680;23.310;2023-07-13T05:55:01;95359.84;;;29.90;47.63
5380;BME280;2713;42.680;23.310;2023-07-13T05:57:28;95349.38;;;30.07;47.32
5380;BME280;2713;42.680;23.310;2023-07-13T05:59:55;95352.38;;;30.19;47.20
5380;BME280;2713;42.680;23.310;2023-07-13T06:02:22;95341.84;;;30.23;47.13
5380;BME280;2713;42.680;23.310;2023-07-13T06:04:48;95328.28;;;30.46;47.32
5380;BME280;2713;42.680;23.310;2023-07-13T06:07:15;95338.28;;;30.27;46.71
5380;BME280;2713;42.680;23.310;2023-07-13T06:09:42;95344.41;;;30.14;46.42
5380;BME280;2713;42.680;23.310;2023-07-13T06:12:10;95334.16;;;30.48;46.37
5380;BME280;2713;42.680;23.310;2023-07-13T06:14:37;95352.66;;;30.77;45.28
5380;BME280;2713;42.680;23.310;2023-07-13T06:17:05;95348.69;;;31.02;44.51
5380;BME280;2713;42.680;23.310;2023-07-13T06:19:32;95342.97;;;31.17;44.82
5380;BME280;2713;42.680;23.310;2023-07-13T06:21:59;95350.94;;;31.22;43.07
5380;BME280;2713;42.680;23.310;2023-07-13T06:24:26;95344.63;;;31.40;42.50
5380;BME280;2713;42.680;23.310;2023-07-13T06:26:53;95348.53;;;31.70;42.56
5380;BME280;2713;42.680;23.310;2023-07-13T06:29:21;95352.59;;;31.90;40.98
5380;BME280;2713;42.680;23.310;2023-07-13T06:31:48;95352.50;;;31.95;40.51
5380;BME280;2713;42.680;23.310;2023-07-13T06:34:14;95347.72;;;32.14;40.27
5380;BME280;2713;42.680;23.310;2023-07-13T06:36:41;95343.06;;;32.28;40.10
5380;BME280;2713;42.680;23.310;2023-07-13T06:39:08;95342.41;;;32.23;40.71
5380;BME280;2713;42.680;23.310;2023-07-13T06:41:35;95338.56;;;32.15;40.31
5380;BME280;2713;42.680;23.310;2023-07-13T06:44:02;95335.56;;;32.16;39.61
5380;BME280;2713;42.680;23.310;2023-07-13T06:46:30;95339.28;;;32.29;39.00
5380;BME280;2713;42.680;23.310;2023-07-13T06:48:57;95339.28;;;32.60;38.97
5380;BME280;2713;42.680;23.310;2023-07-13T06:51:24;95331.91;;;32.83;39.31
5380;BME280;2713;42.680;23.310;2023-07-13T06:53:51;95343.06;;;32.59;39.64
5380;BME280;2713;42.680;23.310;2023-07-13T06:56:18;95337.94;;;32.57;39.14
5380;BME280;2713;42.680;23.310;2023-07-13T06:58:45;95337.41;;;32.78;38.44
5380;BME280;2713;42.680;23.310;2023-07-13T07:01:12;95335.41;;;32.92;38.72
5380;BME280;2713;42.680;23.310;2023-07-13T07:03:40;95340.78;;;32.83;39.84
5380;BME280;2713;42.680;23.310;2023-07-13T07:06:13;95346.34;;;32.95;38.85
5380;BME280;2713;42.680;23.310;2023-07-13T07:08:40;95333.38;;;33.06;37.99
5380;BME280;2713;42.680;23.310;2023-07-13T07:11:08;95335.00;;;33.15;37.88
5380;BME280;2713;42.680;23.310;2023-07-13T07:13:35;95341.41;;;32.89;38.95
5380;BME280;2713;42.680;23.310;2023-07-13T07:16:02;95333.00;;;32.82;39.92
5380;BME280;2713;42.680;23.310;2023-07-13T07:18:29;95334.22;;;33.15;38.74
5380;BME280;2713;42.680;23.310;2023-07-13T07:20:57;95343.75;;;33.38;38.30
5380;BME280;2713;42.680;23.310;2023-07-13T07:23:24;95327.59;;;33.90;37.19
5380;BME280;2713;42.680;23.310;2023-07-13T07:25:50;95331.69;;;33.96;37.02
5380;BME280;2713;42.680;23.310;2023-07-13T07:28:18;95331.56;;;33.58;37.96
5380;BME280;2713;42.680;23.310;2023-07-13T07:30:45;95325.34;;;33.40;36.85
5380;BME280;2713;42.680;23.310;2023-07-13T07:33:12;95324.41;;;33.36;37.10
5380;BME280;2713;42.680;23.310;2023-07-13T07:35:39;95323.41;;;32.98;38.41
5380;BME280;2713;42.680;23.310;2023-07-13T07:38:07;95309.69;;;33.42;37.21
5380;BME280;2713;42.680;23.310;2023-07-13T07:40:36;95314.94;;;33.73;37.31
5380;BME280;2713;42.680;23.310;2023-07-13T07:43:03;95312.97;;;33.39;37.89
5380;BME280;2713;42.680;23.310;2023-07-13T07:45:30;95306.19;;;33.68;37.24
5380;BME280;2713;42.680;23.310;2023-07-13T07:47:57;95306.00;;;33.81;36.80
5380;BME280;2713;42.680;23.310;2023-07-13T07:50:24;95307.88;;;34.15;36.98
5380;BME280;2713;42.680;23.310;2023-07-13T07:52:51;95307.16;;;34.35;36.94
5380;BME280;2713;42.680;23.310;2023-07-13T07:55:20;95305.25;;;34.44;36.64
5380;BME280;2713;42.680;23.310;2023-07-13T07:57:46;95305.00;;;34.67;35.74
5380;BME280;2713;42.680;23.310;2023-07-13T08:00:14;95303.66;;;34.81;35.61
5380;BME280;2713;42.680;23.310;2023-07-13T08:02:41;95294.03;;;34.63;35.55
5380;BME280;2713;42.680;23.310;2023-07-13T08:05:08;95297.72;;;33.95;36.09
5380;BME280;2713;42.680;23.310;2023-07-13T08:07:36;95282.13;;;34.26;35.70
5380;BME280;2713;42.680;23.310;2023-07-13T08:10:03;95281.75;;;34.36;35.56
5380;BME280;2713;42.680;23.310;2023-07-13T08:12:35;95280.09;;;34.52;35.43
5380;BME280;2713;42.680;23.310;2023-07-13T08:15:02;95274.06;;;34.85;34.69
5380;BME280;2713;42.680;23.310;2023-07-13T08:17:29;95276.00;;;35.05;34.28
5380;BME280;2713;42.680;23.310;2023-07-13T08:19:56;95273.34;;;34.76;34.73
5380;BME280;2713;42.680;23.310;2023-07-13T08:22:23;95269.84;;;34.75;35.01
5380;BME280;2713;42.680;23.310;2023-07-13T08:24:49;95275.81;;;34.51;35.06
5380;BME280;2713;42.680;23.310;2023-07-13T08:27:21;95266.72;;;34.65;34.95
5380;BME280;2713;42.680;23.310;2023-07-13T08:29:50;95260.56;;;34.85;34.30
5380;BME280;2713;42.680;23.310;2023-07-13T08:32:17;95265.06;;;35.01;34.82
5380;BME280;2713;42.680;23.310;2023-07-13T08:34:44;95263.44;;;35.71;33.76
5380;BME280;2713;42.680;23.310;2023-07-13T08:37:11;95259.94;;;35.71;34.67
5380;BME280;2713;42.680;23.310;2023-07-13T08:39:38;95251.63;;;35.55;34.79
5380;BME280;2713;42.680;23.310;2023-07-13T08:42:11;95256.53;;;35.62;34.28
5380;BME280;2713;42.680;23.310;2023-07-13T08:44:48;95245.88;;;35.89;33.61
5380;BME280;2713;42.680;23.310;2023-07-13T08:47:19;95250.75;;;35.96;33.73
5380;BME280;2713;42.680;23.310;2023-07-13T08:49:48;95242.56;;;35.72;34.40
5380;BME280;2713;42.680;23.310;2023-07-13T08:52:26;95252.78;;;35.66;33.71
5380;BME280;2713;42.680;23.310;2023-07-13T08:54:56;95256.66;;;35.24;34.07
5380;BME280;2713;42.680;23.310;2023-07-13T08:57:31;95252.47;;;35.05;33.91
5380;BME280;2713;42.680;23.310;2023-07-13T08:59:58;95250.66;;;35.18;33.83
5380;BME280;2713;42.680;23.310;2023-07-13T09:02:32;95261.94;;;35.62;32.89
5380;BME280;2713;42.680;23.310;2023-07-13T09:05:06;95274.97;;;35.59;33.06
5380;BME280;2713;42.680;23.310;2023-07-13T09:07:45;95274.28;;;35.83;34.16
5380;BME280;2713;42.680;23.310;2023-07-13T09:10:22;95284.53;;;36.10;32.56
5380;BME280;2713;42.680;23.310;2023-07-13T09:13:01;95281.50;;;36.12;32.70
5380;BME280;2713;42.680;23.310;2023-07-13T09:15:32;95279.44;;;35.76;33.13
5380;BME280;2713;42.680;23.310;2023-07-13T09:18:04;95275.03;;;35.51;34.38
5380;BME280;2713;42.680;23.310;2023-07-13T09:20:37;95272.34;;;35.51;34.51
5380;BME280;2713;42.680;23.310;2023-07-13T09:23:14;95274.50;;;35.57;34.69
5380;BME280;2713;42.680;23.310;2023-07-13T09:25:45;95263.75;;;35.70;33.96
5380;BME280;2713;42.680;23.310;2023-07-13T09:28:17;95278.06;;;35.70;34.06
5380;BME280;2713;42.680;23.310;2023-07-13T09:30:49;95280.19;;;35.65;34.43
5380;BME280;2713;42.680;23.310;2023-07-13T09:33:20;95266.81;;;35.47;33.63
5380;BME280;2713;42.680;23.310;2023-07-13T09:35:47;95274.97;;;35.59;33.61
5380;BME280;2713;42.680;23.310;2023-07-13T09:38:15;95271.81;;;35.90;32.48
5380;BME280;2713;42.680;23.310;2023-07-13T09:40:50;95268.06;;;35.83;33.27
5380;BME280;2713;42.680;23.310;2023-07-13T09:43:21;95267.78;;;35.64;34.13
5380;BME280;2713;42.680;23.310;2023-07-13T09:45:48;95262.88;;;35.57;33.96
5380;BME280;2713;42.680;23.310;2023-07-13T09:48:16;95258.25;;;35.78;33.51
5380;BME280;2713;42.680;23.310;2023-07-13T09:50:45;95257.13;;;35.58;33.03
5380;BME280;2713;42.680;23.310;2023-07-13T09:53:13;95243.25;;;35.69;33.02
5380;BME280;2713;42.680;23.310;2023-07-13T09:55:42;95232.00;;;35.91;33.03
5380;BME280;2713;42.680;23.310;2023-07-13T09:58:12;95228.38;;;35.87;33.62
5380;BME280;2713;42.680;23.310;2023-07-13T10:00:40;95237.41;;;35.79;34.54
5380;BME280;2713;42.680;23.310;2023-07-13T10:03:17;95232.63;;;35.76;35.44
5380;BME280;2713;42.680;23.310;2023-07-13T10:05:46;95235.03;;;35.56;34.20
5380;BME280;2713;42.680;23.310;2023-07-13T10:08:23;95221.38;;;35.41;34.04
5380;BME280;2713;42.680;23.310;2023-07-13T10:10:57;95211.09;;;35.34;34.48
5380;BME280;2713;42.680;23.310;2023-07-13T10:13:27;95212.28;;;35.57;34.23
5380;BME280;2713;42.680;23.310;2023-07-13T10:15:55;95218.78;;;35.65;33.92
5380;BME280;2713;42.680;23.310;2023-07-13T10:18:24;95226.59;;;35.79;33.48
5380;BME280;2713;42.680;23.310;2023-07-13T10:21:00;95229.09;;;35.96;33.47
5380;BME280;2713;42.680;23.310;2023-07-13T10:23:35;95223.44;;;35.89;29.74
5380;BME280;2713;42.680;23.310;2023-07-13T10:26:05;95219.53;;;36.10;29.00
5380;BME280;2713;42.680;23.310;2023-07-13T10:28:40;95214.72;;;36.16;27.27
5380;BME280;2713;42.680;23.310;2023-07-13T10:31:12;95212.19;;;35.99;26.31
5380;BME280;2713;42.680;23.310;2023-07-13T10:33:40;95207.69;;;36.03;26.25
5380;BME280;2713;42.680;23.310;2023-07-13T10:36:14;95202.41;;;36.19;26.21
5380;BME280;2713;42.680;23.310;2023-07-13T10:38:43;95207.50;;;36.20;26.96
5380;BME280;2713;42.680;23.310;2023-07-13T10:41:16;95199.38;;;36.20;25.86
5380;BME280;2713;42.680;23.310;2023-07-13T10:43:46;95201.97;;;36.17;26.18
5380;BME280;2713;42.680;23.310;2023-07-13T10:46:18;95188.22;;;36.09;25.92
5380;BME280;2713;42.680;23.310;2023-07-13T10:48:49;95185.34;;;36.06;26.90
5380;BME280;2713;42.680;23.310;2023-07-13T10:51:19;95182.19;;;36.04;26.53
5380;BME280;2713;42.680;23.310;2023-07-13T10:53:48;95176.31;;;36.02;26.18
5380;BME280;2713;42.680;23.310;2023-07-13T10:56:34;95173.50;;;35.98;25.61
5380;BME280;2713;42.680;23.310;2023-07-13T10:59:11;95173.34;;;35.83;25.96
5380;BME280;2713;42.680;23.310;2023-07-13T11:01:49;95173.38;;;35.95;26.28
5380;BME280;2713;42.680;23.310;2023-07-13T11:04:18;95177.31;;;35.97;26.74
5380;BME280;2713;42.680;23.310;2023-07-13T11:06:52;95154.19;;;36.00;26.48
5380;BME280;2713;42.680;23.310;2023-07-13T11:09:32;95163.69;;;36.06;26.14
5380;BME280;2713;42.680;23.310;2023-07-13T11:12:06;95159.41;;;36.17;25.90
5380;BME280;2713;42.680;23.310;2023-07-13T11:14:36;95149.28;;;36.14;25.78
5380;BME280;2713;42.680;23.310;2023-07-13T11:17:25;95154.94;;;36.09;26.06
5380;BME280;2713;42.680;23.310;2023-07-13T11:20:10;95147.03;;;36.16;26.67
5380;BME280;2713;42.680;23.310;2023-07-13T11:22:48;95149.47;;;35.97;26.37
5380;BME280;2713;42.680;23.310;2023-07-13T11:25:27;95147.00;;;35.92;26.27
5380;BME280;2713;42.680;23.310;2023-07-13T11:28:21;95133.47;;;36.04;26.60
5380;BME280;2713;42.680;23.310;2023-07-13T11:30:50;95137.31;;;36.15;27.00
5380;BME280;2713;42.680;23.310;2023-07-13T11:33:28;95135.63;;;36.23;26.47
5380;BME280;2713;42.680;23.310;2023-07-13T11:36:02;95124.78;;;36.10;27.31
5380;BME280;2713;42.680;23.310;2023-07-13T11:38:37;95132.31;;;35.93;27.00
5380;BME280;2713;42.680;23.310;2023-07-13T11:41:06;95135.03;;;35.81;27.61
5380;BME280;2713;42.680;23.310;2023-07-13T11:43:33;95126.25;;;35.72;27.81
5380;BME280;2713;42.680;23.310;2023-07-13T11:46:20;95121.72;;;35.76;27.97
5380;BME280;2713;42.680;23.310;2023-07-13T11:48:47;95121.03;;;35.67;28.61
5380;BME280;2713;42.680;23.310;2023-07-13T11:51:20;95113.56;;;35.51;28.82
5380;BME280;2713;42.680;23.310;2023-07-13T11:53:51;95113.09;;;35.49;28.76
5380;BME280;2713;42.680;23.310;2023-07-13T11:56:18;95110.38;;;35.49;28.60
5380;BME280;2713;42.680;23.310;2023-07-13T11:58:48;95102.16;;;35.46;28.85
5380;BME280;2713;42.680;23.310;2023-07-13T12:01:19;95102.38;;;35.53;29.32
5380;BME280;2713;42.680;23.310;2023-07-13T12:03:48;95107.47;;;35.54;28.94
5380;BME280;2713;42.680;23.310;2023-07-13T12:06:26;95098.94;;;35.65;28.18
5380;BME280;2713;42.680;23.310;2023-07-13T12:08:57;95088.47;;;35.75;28.51
5380;BME280;2713;42.680;23.310;2023-07-13T12:11:25;95095.34;;;35.85;28.13
5380;BME280;2713;42.680;23.310;2023-07-13T12:13:51;95088.13;;;35.77;25.98
5380;BME280;2713;42.680;23.310;2023-07-13T12:16:25;95086.13;;;35.86;26.50
5380;BME280;2713;42.680;23.310;2023-07-13T12:18:54;95093.00;;;35.95;27.26
5380;BME280;2713;42.680;23.310;2023-07-13T12:21:26;95082.25;;;35.87;27.32
5380;BME280;2713;42.680;23.310;2023-07-13T12:23:56;95074.94;;;35.87;27.28
5380;BME280;2713;42.680;23.310;2023-07-13T12:26:23;95072.66;;;35.89;26.54
5380;BME280;2713;42.680;23.310;2023-07-13T12:28:53;95064.69;;;35.81;26.15
5380;BME280;2713;42.680;23.310;2023-07-13T12:31:30;95067.19;;;35.86;26.73
5380;BME280;2713;42.680;23.310;2023-07-13T12:34:03;95064.22;;;35.91;26.21
5380;BME280;2713;42.680;23.310;2023-07-13T12:36:34;95061.97;;;35.93;26.90
5380;BME280;2713;42.680;23.310;2023-07-13T12:39:12;95055.66;;;35.89;26.55
5380;BME280;2713;42.680;23.310;2023-07-13T12:41:39;95052.06;;;35.85;27.23
5380;BME280;2713;42.680;23.310;2023-07-13T12:44:10;95045.72;;;35.93;27.76
5380;BME280;2713;42.680;23.310;2023-07-13T12:46:38;95048.56;;;36.08;26.62
5380;BME280;2713;42.680;23.310;2023-07-13T12:49:07;95042.13;;;36.13;26.82
5380;BME280;2713;42.680;23.310;2023-07-13T12:51:34;95048.66;;;36.12;26.73
5380;BME280;2713;42.680;23.310;2023-07-13T12:54:16;95049.09;;;36.26;26.39
5380;BME280;2713;42.680;23.310;2023-07-13T12:56:43;95045.72;;;36.17;25.68
5380;BME280;2713;42.680;23.310;2023-07-13T12:59:17;95039.50;;;36.29;25.37
5380;BME280;2713;42.680;23.310;2023-07-13T13:01:46;95039.00;;;36.39;25.82
5380;BME280;2713;42.680;23.310;2023-07-13T13:04:13;95036.94;;;36.48;25.74
5380;BME280;2713;42.680;23.310;2023-07-13T13:06:40;95032.78;;;36.50;25.60
5380;BME280;2713;42.680;23.310;2023-07-13T13:09:13;95019.38;;;36.42;26.50
5380;BME280;2713;42.680;23.310;2023-07-13T13:11:40;95026.09;;;36.48;26.07
5380;BME280;2713;42.680;23.310;2023-07-13T13:14:08;95015.84;;;36.53;25.92
5380;BME280;2713;42.680;23.310;2023-07-13T13:16:37;95018.78;;;36.48;26.16
5380;BME280;2713;42.680;23.310;2023-07-13T13:19:13;95028.25;;;36.54;25.34
5380;BME280;2713;42.680;23.310;2023-07-13T13:21:42;95015.75;;;36.50;25.86